Time;durP1;ratioP1;P1;durP2;ratioP2;P2;SDS_P1;SDS_P2;PMS_P1;PMS_P2;Temp;Humidity;BMP_temperature;BMP_pressure;BME280_temperature;BME280_humidity;BME280_pressure;Samples;Min_cycle;Max_cycle;Signal;HPM_P1;HPM_P2
2023/09/11 00:00:22;;;;;;;0.10;0.10;;;;;;;;;;6271527;28;20029;-84
2023/09/11 00:03:22;;;;;;;0.10;0.10;;;;;;;;;;6267736;28;20036;-84
2023/09/11 00:06:22;;;;;;;0.10;0.10;;;;;;;;;;6291282;28;20040;-84
2023/09/11 00:09:22;;;;;;;0.10;0.10;;;;;;;;;;6257855;28;20031;-84
2023/09/11 00:12:24;;;;;;;0.10;0.10;;;;;;;;;;6279804;28;20018;-84
2023/09/11 00:15:25;;;;;;;0.10;0.10;;;;;;;;;;6288045;28;20028;-83
2023/09/11 00:18:25;;;;;;;0.10;0.10;;;;;;;;;;6294512;28;20024;-83
2023/09/11 00:21:26;;;;;;;0.10;0.10;;;;;;;;;;6296713;28;20163;-84
2023/09/11 00:24:26;;;;;;;0.10;0.10;;;;;;;;;;6276092;28;20062;-83
2023/09/11 00:27:26;;;;;;;0.10;0.10;;;;;;;;;;6296286;28;20012;-85
2023/09/11 00:30:26;;;;;;;0.10;0.10;;;;;;;;;;6296073;28;20055;-85
2023/09/11 00:33:27;;;;;;;0.10;0.10;;;;;;;;;;6262942;28;20017;-85
2023/09/11 00:36:27;;;;;;;0.00;0.00;;;;;;;;;;6276809;28;20084;-85
2023/09/11 00:39:27;;;;;;;0.10;0.10;;;;;;;;;;6287251;28;20115;-85
2023/09/11 00:42:28;;;;;;;0.10;0.10;;;;;;;;;;6288795;28;20493;-85
2023/09/11 00:45:28;;;;;;;0.10;0.10;;;;;;;;;;6290064;28;20107;-85
2023/09/11 00:48:29;;;;;;;0.10;0.10;;;;;;;;;;6293123;28;20012;-85
2023/09/11 00:51:30;;;;;;;0.10;0.10;;;;;;;;;;6296652;28;20024;-85
2023/09/11 00:54:30;;;;;;;0.10;0.10;;;;;;;;;;6296158;28;20021;-85
2023/09/11 00:57:30;;;;;;;0.10;0.10;;;;;;;;;;6286311;28;20083;-85
2023/09/11 01:00:30;;;;;;;0.10;0.10;;;;;;;;;;6292021;28;20020;-85
2023/09/11 01:03:31;;;;;;;0.10;0.10;;;;;;;;;;6275329;28;20016;-85
2023/09/11 01:06:32;;;;;;;0.10;0.10;;;;;;;;;;6316684;28;20506;-85
2023/09/11 01:09:32;;;;;;;0.10;0.10;;;;;;;;;;6295082;28;20033;-85
2023/09/11 01:12:35;;;;;;;0.10;0.10;;;;;;;;;;6295576;28;20477;-84
2023/09/11 01:15:39;;;;;;;0.10;0.10;;;;;;;;;;6291100;28;20029;-85
2023/09/11 01:18:52;;;;;;;0.10;0.10;;;;;;;;;;6275188;28;20028;-85
2023/09/11 01:22:11;;;;;;;0.10;0.10;;;;;;;;;;6295312;28;20042;-85
2023/09/11 01:25:20;;;;;;;0.10;0.10;;;;;;;;;;6293977;28;20027;-85
2023/09/11 01:28:29;;;;;;;0.10;0.10;;;;;;;;;;6287631;28;20394;-85
2023/09/11 01:31:33;;;;;;;0.10;0.10;;;;;;;;;;6273556;28;20024;-85
2023/09/11 01:34:34;;;;;;;0.10;0.10;;;;;;;;;;6265455;28;20021;-85
2023/09/11 01:37:34;;;;;;;0.10;0.10;;;;;;;;;;6281439;28;20032;-84
2023/09/11 01:40:36;;;;;;;0.10;0.10;;;;;;;;;;6268632;28;20025;-84
2023/09/11 01:43:37;;;;;;;0.10;0.10;;;;;;;;;;6286056;28;20019;-84
2023/09/11 01:46:37;;;;;;;0.10;0.10;;;;;;;;;;6267870;28;20029;-84
2023/09/11 01:49:38;;;;;;;0.10;0.10;;;;;;;;;;6289725;28;20020;-84
2023/09/11 01:52:39;;;;;;;0.10;0.10;;;;;;;;;;6294387;28;20099;-84
2023/09/11 01:55:39;;;;;;;0.10;0.10;;;;;;;;;;6271902;28;20422;-84
2023/09/11 01:58:39;;;;;;;0.10;0.10;;;;;;;;;;6275076;28;20494;-84
2023/09/11 02:01:40;;;;;;;0.10;0.10;;;;;;;;;;6287271;28;20017;-84
2023/09/11 02:04:40;;;;;;;0.10;0.10;;;;;;;;;;6300614;28;20482;-84
2023/09/11 02:07:40;;;;;;;0.10;0.10;;;;;;;;;;6284097;28;20054;-84
2023/09/11 02:10:40;;;;;;;0.10;0.10;;;;;;;;;;6292196;28;20016;-84
2023/09/11 02:13:41;;;;;;;0.10;0.10;;;;;;;;;;6274523;28;20055;-84
2023/09/11 02:16:41;;;;;;;0.10;0.10;;;;;;;;;;6306504;28;20082;-84
2023/09/11 02:19:42;;;;;;;0.10;0.10;;;;;;;;;;6293142;28;20045;-84
2023/09/11 02:22:42;;;;;;;0.10;0.10;;;;;;;;;;6266837;28;20037;-84
2023/09/11 02:25:43;;;;;;;0.13;0.13;;;;;;;;;;6267796;28;20028;-84
2023/09/11 02:28:44;;;;;;;0.10;0.10;;;;;;;;;;6254922;28;20028;-83
2023/09/11 02:31:44;;;;;;;0.10;0.10;;;;;;;;;;6271562;28;20067;-83
2023/09/11 02:34:44;;;;;;;0.10;0.10;;;;;;;;;;6275039;28;20051;-84
2023/09/11 02:37:44;;;;;;;0.10;0.10;;;;;;;;;;6296750;28;20021;-84
2023/09/11 02:40:46;;;;;;;0.10;0.10;;;;;;;;;;6279534;28;20199;-86
2023/09/11 02:43:46;;;;;;;0.10;0.10;;;;;;;;;;6283105;28;20056;-83
2023/09/11 02:46:46;;;;;;;0.10;0.10;;;;;;;;;;6297537;28;20047;-84
2023/09/11 02:49:47;;;;;;;0.20;0.20;;;;;;;;;;6268896;28;20017;-84
2023/09/11 02:52:47;;;;;;;0.10;0.10;;;;;;;;;;6271998;28;20028;-84
2023/09/11 02:55:47;;;;;;;0.10;0.10;;;;;;;;;;6274530;28;20024;-84
2023/09/11 02:58:47;;;;;;;0.10;0.10;;;;;;;;;;6299865;28;20028;-84
2023/09/11 03:01:47;;;;;;;0.13;0.13;;;;;;;;;;6274113;28;20021;-84
2023/09/11 03:04:51;;;;;;;0.10;0.10;;;;;;;;;;6286050;28;20162;-84
2023/09/11 03:07:51;;;;;;;0.10;0.10;;;;;;;;;;6272367;28;20052;-84
2023/09/11 03:10:51;;;;;;;0.10;0.10;;;;;;;;;;6273130;28;20497;-84
2023/09/11 03:13:52;;;;;;;0.10;0.10;;;;;;;;;;6292305;28;20481;-84
2023/09/11 03:16:52;;;;;;;0.10;0.10;;;;;;;;;;6286396;28;20380;-84
2023/09/11 03:19:52;;;;;;;0.10;0.10;;;;;;;;;;6288643;28;20028;-84
2023/09/11 03:22:53;;;;;;;0.20;0.20;;;;;;;;;;6274230;28;20024;-84
2023/09/11 03:25:54;;;;;;;0.10;0.10;;;;;;;;;;6290359;28;20359;-84
2023/09/11 03:28:54;;;;;;;0.10;0.10;;;;;;;;;;6290257;28;20028;-84
2023/09/11 03:31:54;;;;;;;0.10;0.10;;;;;;;;;;6273364;28;20028;-84
2023/09/11 03:34:54;;;;;;;0.10;0.10;;;;;;;;;;6294285;28;20020;-84
2023/09/11 03:37:55;;;;;;;0.10;0.10;;;;;;;;;;6274247;28;20058;-84
2023/09/11 03:40:56;;;;;;;0.10;0.10;;;;;;;;;;6284804;28;20025;-84
2023/09/11 03:43:56;;;;;;;0.10;0.10;;;;;;;;;;6293351;28;20028;-84
2023/09/11 03:46:57;;;;;;;0.10;0.10;;;;;;;;;;6271878;28;20098;-84
2023/09/11 03:49:57;;;;;;;0.20;0.20;;;;;;;;;;6291856;28;20103;-84
2023/09/11 03:52:57;;;;;;;0.10;0.10;;;;;;;;;;6285638;28;20036;-84
2023/09/11 03:55:57;;;;;;;0.10;0.10;;;;;;;;;;6295359;28;20115;-84
2023/09/11 03:58:58;;;;;;;0.10;0.10;;;;;;;;;;6284025;28;20024;-84
2023/09/11 04:01:58;;;;;;;0.10;0.10;;;;;;;;;;6284469;28;20086;-84
2023/09/11 04:04:58;;;;;;;0.10;0.10;;;;;;;;;;6285501;28;20502;-84
2023/09/11 04:07:58;;;;;;;0.10;0.10;;;;;;;;;;6294623;28;20063;-84
2023/09/11 04:10:59;;;;;;;0.10;0.10;;;;;;;;;;6276517;28;20024;-84
2023/09/11 04:13:59;;;;;;;0.10;0.10;;;;;;;;;;6295763;28;20107;-84
2023/09/11 04:16:59;;;;;;;0.10;0.10;;;;;;;;;;6282965;28;20020;-84
2023/09/11 04:20:00;;;;;;;0.10;0.10;;;;;;;;;;6305939;28;20012;-84
2023/09/11 04:23:00;;;;;;;0.10;0.10;;;;;;;;;;6279289;28;20035;-84
2023/09/11 04:26:00;;;;;;;0.10;0.10;;;;;;;;;;6277323;28;20024;-85
2023/09/11 04:29:01;;;;;;;0.10;0.10;;;;;;;;;;6293885;28;20016;-84
2023/09/11 04:32:02;;;;;;;0.10;0.10;;;;;;;;;;6273902;28;20023;-85
2023/09/11 04:35:02;;;;;;;0.10;0.10;;;;;;;;;;6285781;28;20132;-85
2023/09/11 04:38:02;;;;;;;0.10;0.10;;;;;;;;;;6300757;28;20389;-85
2023/09/11 04:41:03;;;;;;;0.10;0.10;;;;;;;;;;6300760;28;20036;-84
2023/09/11 04:44:03;;;;;;;0.10;0.10;;;;;;;;;;6291744;28;20021;-85
2023/09/11 04:47:03;;;;;;;0.10;0.10;;;;;;;;;;6281329;28;20029;-85
2023/09/11 04:50:04;;;;;;;0.20;0.20;;;;;;;;;;6276127;28;20067;-85
2023/09/11 04:53:04;;;;;;;0.10;0.10;;;;;;;;;;6268297;28;20048;-85
2023/09/11 04:56:04;;;;;;;0.20;0.20;;;;;;;;;;6274118;28;20476;-85
2023/09/11 04:59:04;;;;;;;0.10;0.10;;;;;;;;;;6295955;28;20045;-85
2023/09/11 05:02:05;;;;;;;0.17;0.17;;;;;;;;;;6287955;28;20032;-85
2023/09/11 05:05:05;;;;;;;0.10;0.10;;;;;;;;;;6280158;28;20032;-85
2023/09/11 05:08:07;;;;;;;0.10;0.10;;;;;;;;;;6269650;28;20056;-84
2023/09/11 05:11:07;;;;;;;0.10;0.10;;;;;;;;;;6284789;28;20029;-83
2023/09/11 05:14:07;;;;;;;0.10;0.10;;;;;;;;;;6282592;28;20125;-85
2023/09/11 05:17:08;;;;;;;0.10;0.10;;;;;;;;;;6276332;28;20062;-85
2023/09/11 05:20:08;;;;;;;0.10;0.10;;;;;;;;;;6281810;28;20024;-84
2023/09/11 05:23:08;;;;;;;0.10;0.10;;;;;;;;;;6263418;28;20020;-85
2023/09/11 05:26:09;;;;;;;0.10;0.10;;;;;;;;;;6283282;28;20418;-84
2023/09/11 05:29:12;;;;;;;0.10;0.10;;;;;;;;;;6255575;28;20025;-84
2023/09/11 05:32:13;;;;;;;0.10;0.10;;;;;;;;;;6276011;28;20051;-84
2023/09/11 05:35:14;;;;;;;0.10;0.10;;;;;;;;;;6288406;28;20359;-84
2023/09/11 05:38:14;;;;;;;0.00;0.00;;;;;;;;;;6298627;28;20148;-84
2023/09/11 05:41:14;;;;;;;0.00;0.00;;;;;;;;;;6280638;28;20020;-84
2023/09/11 05:44:14;;;;;;;0.10;0.10;;;;;;;;;;6288625;28;20025;-84
2023/09/11 05:47:15;;;;;;;0.10;0.10;;;;;;;;;;6290785;28;20020;-83
2023/09/11 05:50:17;;;;;;;0.10;0.10;;;;;;;;;;6295107;28;20051;-83
2023/09/11 05:53:17;;;;;;;0.00;0.00;;;;;;;;;;6279660;28;20086;-83
2023/09/11 05:56:18;;;;;;;0.00;0.00;;;;;;;;;;6270727;28;20022;-84
2023/09/11 05:59:19;;;;;;;0.00;0.00;;;;;;;;;;6284419;28;20052;-84
2023/09/11 06:02:22;;;;;;;0.00;0.00;;;;;;;;;;6305573;28;20076;-84
2023/09/11 06:05:23;;;;;;;0.00;0.00;;;;;;;;;;6273467;28;20090;-84
2023/09/11 06:08:23;;;;;;;0.00;0.00;;;;;;;;;;6281677;28;20032;-83
2023/09/11 06:11:23;;;;;;;0.00;0.00;;;;;;;;;;6291189;28;20029;-83
2023/09/11 06:14:24;;;;;;;0.00;0.00;;;;;;;;;;6275173;28;20249;-83
2023/09/11 06:17:24;;;;;;;0.00;0.00;;;;;;;;;;6290625;28;20059;-84
2023/09/11 06:20:25;;;;;;;0.00;0.00;;;;;;;;;;6286100;28;20059;-84
2023/09/11 06:23:25;;;;;;;0.00;0.00;;;;;;;;;;6273864;28;20022;-83
2023/09/11 06:26:25;;;;;;;0.00;0.00;;;;;;;;;;6268160;28;20218;-84
2023/09/11 06:29:25;;;;;;;0.00;0.00;;;;;;;;;;6281294;28;20024;-84
2023/09/11 06:32:26;;;;;;;0.00;0.00;;;;;;;;;;6289795;28;20032;-84
2023/09/11 06:35:26;;;;;;;0.00;0.00;;;;;;;;;;6288974;28;20030;-84
2023/09/11 06:38:26;;;;;;;0.00;0.00;;;;;;;;;;6303441;28;20406;-84
2023/09/11 06:41:27;;;;;;;0.00;0.00;;;;;;;;;;6285888;28;20028;-84
2023/09/11 06:44:27;;;;;;;0.00;0.00;;;;;;;;;;6274042;28;20475;-84
2023/09/11 06:47:28;;;;;;;0.00;0.00;;;;;;;;;;6270880;28;20863;-84
2023/09/11 06:50:29;;;;;;;0.00;0.00;;;;;;;;;;6290277;28;20016;-84
2023/09/11 06:53:29;;;;;;;0.00;0.00;;;;;;;;;;6287072;28;20025;-84
2023/09/11 06:56:30;;;;;;;0.00;0.00;;;;;;;;;;6268114;28;20021;-84
2023/09/11 06:59:31;;;;;;;0.00;0.00;;;;;;;;;;6287541;28;20398;-85
2023/09/11 07:02:31;;;;;;;0.00;0.00;;;;;;;;;;6302948;28;20104;-84
2023/09/11 07:05:31;;;;;;;0.00;0.00;;;;;;;;;;6292603;28;20429;-84
2023/09/11 07:08:31;;;;;;;0.00;0.00;;;;;;;;;;6286340;28;20991;-84
2023/09/11 07:11:32;;;;;;;0.00;0.00;;;;;;;;;;6287951;28;20656;-83
2023/09/11 07:14:32;;;;;;;0.00;0.00;;;;;;;;;;6271220;28;20485;-84
2023/09/11 07:17:32;;;;;;;0.00;0.00;;;;;;;;;;6293813;28;20359;-84
2023/09/11 07:20:32;;;;;;;0.00;0.00;;;;;;;;;;6295046;28;20078;-84
2023/09/11 07:23:33;;;;;;;0.00;0.00;;;;;;;;;;6292861;28;20497;-83
2023/09/11 07:26:33;;;;;;;0.00;0.00;;;;;;;;;;6296764;28;20035;-84
2023/09/11 07:29:34;;;;;;;;;;;;;;;;;;6301405;28;20090;-84
2023/09/11 07:32:34;;;;;;;0.00;0.00;;;;;;;;;;6263747;28;19908;-84
2023/09/11 07:35:34;;;;;;;0.00;0.00;;;;;;;;;;6288623;28;20021;-84
2023/09/11 07:38:34;;;;;;;0.00;0.00;;;;;;;;;;6298345;28;20024;-83
2023/09/11 07:41:35;;;;;;;0.00;0.00;;;;;;;;;;6286729;28;20478;-85
2023/09/11 07:44:35;;;;;;;0.00;0.00;;;;;;;;;;6270165;28;20032;-84
2023/09/11 07:47:35;;;;;;;0.00;0.00;;;;;;;;;;6295039;28;20104;-83
2023/09/11 07:50:36;;;;;;;0.00;0.00;;;;;;;;;;6296844;28;20501;-84
2023/09/11 07:53:36;;;;;;;0.00;0.00;;;;;;;;;;6287482;28;20027;-83
2023/09/11 07:56:38;;;;;;;0.00;0.00;;;;;;;;;;6281835;28;20056;-84
2023/09/11 07:59:38;;;;;;;0.00;0.00;;;;;;;;;;6284224;28;20016;-84
2023/09/11 08:02:38;;;;;;;0.00;0.00;;;;;;;;;;6282525;28;20048;-83
2023/09/11 08:05:38;;;;;;;0.00;0.00;;;;;;;;;;6289058;28;20490;-84
2023/09/11 08:08:39;;;;;;;0.00;0.00;;;;;;;;;;6272776;28;20017;-83
2023/09/11 08:11:39;;;;;;;0.00;0.00;;;;;;;;;;6279633;28;20096;-83
2023/09/11 08:14:39;;;;;;;0.00;0.00;;;;;;;;;;6265465;28;20025;-83
2023/09/11 08:17:40;;;;;;;0.00;0.00;;;;;;;;;;6282231;28;20047;-83
2023/09/11 08:20:42;;;;;;;0.00;0.00;;;;;;;;;;6256316;28;20048;-83
2023/09/11 08:23:43;;;;;;;0.00;0.00;;;;;;;;;;6291717;28;20490;-83
2023/09/11 08:26:44;;;;;;;;;;;;;;;;;;6263328;28;20478;-84
2023/09/11 08:29:44;;;;;;;0.00;0.00;;;;;;;;;;6288243;28;19916;-84
2023/09/11 08:32:44;;;;;;;0.00;0.00;;;;;;;;;;6278702;28;20034;-83
2023/09/11 08:35:47;;;;;;;0.00;0.00;;;;;;;;;;6296145;28;20025;-83
2023/09/11 08:38:47;;;;;;;0.00;0.00;;;;;;;;;;6293153;28;20490;-84
2023/09/11 08:41:49;;;;;;;0.00;0.00;;;;;;;;;;6297094;28;20044;-84
2023/09/11 08:44:49;;;;;;;0.00;0.00;;;;;;;;;;6287076;28;20022;-84
2023/09/11 08:47:50;;;;;;;0.00;0.00;;;;;;;;;;6272578;28;20013;-83
2023/09/11 08:50:51;;;;;;;;;;;;;;;;;;6291597;28;20055;-83
2023/09/11 08:53:52;;;;;;;0.00;0.00;;;;;;;;;;6285072;28;19908;-84
2023/09/11 08:56:52;;;;;;;;;;;;;;;;;;6283404;28;20031;-83
2023/09/11 08:59:54;;;;;;;0.00;0.00;;;;;;;;;;6277130;28;19909;-84
2023/09/11 09:02:55;;;;;;;0.00;0.00;;;;;;;;;;6306835;28;20031;-83
2023/09/11 09:05:56;;;;;;;0.00;0.00;;;;;;;;;;6288719;28;20037;-84
2023/09/11 09:08:56;;;;;;;;;;;;;;;;;;6276547;28;20013;-83
2023/09/11 09:11:57;;;;;;;0.00;0.00;;;;;;;;;;6295228;28;19916;-83
2023/09/11 09:14:58;;;;;;;0.00;0.00;;;;;;;;;;6295102;28;20013;-84
2023/09/11 09:17:58;;;;;;;;;;;;;;;;;;6269721;28;20488;-84
2023/09/11 09:21:00;;;;;;;0.00;0.00;;;;;;;;;;6269379;28;19905;-84
2023/09/11 09:24:12;;;;;;;0.00;0.00;;;;;;;;;;6292084;28;20024;-84
2023/09/11 09:27:12;;;;;;;0.00;0.00;;;;;;;;;;6295399;28;20090;-84
2023/09/11 09:30:12;;;;;;;;;;;;;;;;;;6274311;28;20017;-84
2023/09/11 09:33:13;;;;;;;0.00;0.00;;;;;;;;;;6286636;28;20456;-84
2023/09/11 09:36:13;;;;;;;;;;;;;;;;;;6290672;28;20067;-84
2023/09/11 09:39:14;;;;;;;0.00;0.00;;;;;;;;;;6289824;28;19958;-84
2023/09/11 09:42:14;;;;;;;;;;;;;;;;;;6285156;28;20036;-84
2023/09/11 09:45:26;;;;;;;0.00;0.00;;;;;;;;;;6273724;28;19916;-91
2023/09/11 09:48:26;;;;;;;0.00;0.00;;;;;;;;;;6274657;28;20880;-91
2023/09/11 09:51:28;;;;;;;;;;;;;;;;;;6288715;28;20029;-91
2023/09/11 09:54:43;;;;;;;0.00;0.00;;;;;;;;;;6284738;28;20360;-91
2023/09/11 09:57:45;;;;;;;0.00;0.00;;;;;;;;;;6284745;28;20045;-90
2023/09/11 10:00:46;;;;;;;0.00;0.00;;;;;;;;;;6276245;28;20063;-92
2023/09/11 10:03:46;;;;;;;;;;;;;;;;;;6279076;28;20021;-91
2023/09/11 10:06:52;;;;;;;0.00;0.00;;;;;;;;;;6290496;28;19962;-85
2023/09/11 10:09:52;;;;;;;0.00;0.00;;;;;;;;;;6290850;28;20774;-84
2023/09/11 10:13:00;;;;;;;0.00;0.00;;;;;;;;;;6266763;28;20056;-85
2023/09/11 10:16:01;;;;;;;0.00;0.00;;;;;;;;;;6290996;28;20051;-86
2023/09/11 10:19:01;;;;;;;0.00;0.00;;;;;;;;;;6277636;28;20534;-85
2023/09/11 10:22:03;;;;;;;0.00;0.00;;;;;;;;;;6271252;28;20028;-85
2023/09/11 10:25:04;;;;;;;0.00;0.00;;;;;;;;;;6291433;28;20016;-85
2023/09/11 10:28:08;;;;;;;0.00;0.00;;;;;;;;;;6269284;28;20162;-85
2023/09/11 10:31:16;;;;;;;0.00;0.00;;;;;;;;;;6284523;28;20027;-85
2023/09/11 10:34:16;;;;;;;0.00;0.00;;;;;;;;;;6297409;28;20020;-85
2023/09/11 10:37:20;;;;;;;0.00;0.00;;;;;;;;;;6293372;28;20058;-85
2023/09/11 10:40:20;;;;;;;0.00;0.00;;;;;;;;;;6277592;28;20035;-85
2023/09/11 10:43:21;;;;;;;0.00;0.00;;;;;;;;;;6284281;28;20033;-85
2023/09/11 10:46:21;;;;;;;;;;;;;;;;;;6264707;28;20254;-85
2023/09/11 10:49:23;;;;;;;0.00;0.00;;;;;;;;;;6272481;28;19912;-85
2023/09/11 10:52:24;;;;;;;0.00;0.00;;;;;;;;;;6288268;28;20037;-85
2023/09/11 10:55:25;;;;;;;0.00;0.00;;;;;;;;;;6287661;28;20032;-85
2023/09/11 10:58:28;;;;;;;0.00;0.00;;;;;;;;;;6306829;28;20063;-85
2023/09/11 11:01:31;;;;;;;0.00;0.00;;;;;;;;;;6293777;28;20680;-86
2023/09/11 11:04:32;;;;;;;0.00;0.00;;;;;;;;;;6270246;28;20561;-86
2023/09/11 11:07:32;;;;;;;0.00;0.00;;;;;;;;;;6287315;28;20052;-85
2023/09/11 11:10:33;;;;;;;0.00;0.00;;;;;;;;;;6288754;28;20031;-86
2023/09/11 11:13:35;;;;;;;0.00;0.00;;;;;;;;;;6272696;28;20016;-85
2023/09/11 11:16:39;;;;;;;0.00;0.00;;;;;;;;;;6287611;28;20075;-85
2023/09/11 11:19:45;;;;;;;0.00;0.00;;;;;;;;;;6269247;28;20031;-86
2023/09/11 11:22:45;;;;;;;0.00;0.00;;;;;;;;;;6285079;28;20055;-86
2023/09/11 11:25:47;;;;;;;0.00;0.00;;;;;;;;;;6261863;28;20048;-85
2023/09/11 11:28:47;;;;;;;0.00;0.00;;;;;;;;;;6281978;28;20017;-85
2023/09/11 11:31:50;;;;;;;0.00;0.00;;;;;;;;;;6272233;28;20497;-86
2023/09/11 11:34:50;;;;;;;0.00;0.00;;;;;;;;;;6270307;28;20272;-85
2023/09/11 11:37:53;;;;;;;0.00;0.00;;;;;;;;;;6297624;28;20077;-85
2023/09/11 11:40:54;;;;;;;0.00;0.00;;;;;;;;;;6272951;28;20029;-86
2023/09/11 11:43:54;;;;;;;0.00;0.00;;;;;;;;;;6280916;28;20064;-84
2023/09/11 11:46:55;;;;;;;0.00;0.00;;;;;;;;;;6276119;28;20013;-85
2023/09/11 11:49:55;;;;;;;0.00;0.00;;;;;;;;;;6295315;28;20074;-84
2023/09/11 11:52:55;;;;;;;0.00;0.00;;;;;;;;;;6272770;28;20033;-85
2023/09/11 11:55:56;;;;;;;0.00;0.00;;;;;;;;;;6301745;28;20079;-85
2023/09/11 11:58:57;;;;;;;0.00;0.00;;;;;;;;;;6290840;28;20009;-85
2023/09/11 12:01:57;;;;;;;0.00;0.00;;;;;;;;;;6292461;28;20143;-85
2023/09/11 12:04:57;;;;;;;0.00;0.00;;;;;;;;;;6282688;28;20024;-86
2023/09/11 12:07:58;;;;;;;0.00;0.00;;;;;;;;;;6296893;28;20055;-90
2023/09/11 12:10:58;;;;;;;0.00;0.00;;;;;;;;;;6291229;28;20477;-90
2023/09/11 12:13:59;;;;;;;0.00;0.00;;;;;;;;;;6295942;28;20490;-91
2023/09/11 12:16:59;;;;;;;0.00;0.00;;;;;;;;;;6290849;28;20259;-91
2023/09/11 12:20:16;;;;;;;0.00;0.00;;;;;;;;;;6301376;28;20013;-91
2023/09/11 12:23:16;;;;;;;0.00;0.00;;;;;;;;;;6270032;28;20068;-91
2023/09/11 12:26:17;;;;;;;0.00;0.00;;;;;;;;;;6286719;28;20052;-91
2023/09/11 12:29:18;;;;;;;0.00;0.00;;;;;;;;;;6299444;28;20465;-91
2023/09/11 12:32:18;;;;;;;0.00;0.00;;;;;;;;;;6286789;28;20035;-91
2023/09/11 12:35:29;;;;;;;0.00;0.00;;;;;;;;;;6291847;28;20052;-91
2023/09/11 12:38:30;;;;;;;0.00;0.00;;;;;;;;;;6292173;28;20036;-91
2023/09/11 12:41:30;;;;;;;0.00;0.00;;;;;;;;;;6290644;28;20027;-90
2023/09/11 12:44:31;;;;;;;0.00;0.00;;;;;;;;;;6298571;28;20020;-91
2023/09/11 12:47:31;;;;;;;0.00;0.00;;;;;;;;;;6295698;28;20104;-91
2023/09/11 12:50:32;;;;;;;0.00;0.00;;;;;;;;;;6271777;28;20056;-91
2023/09/11 12:53:32;;;;;;;0.00;0.00;;;;;;;;;;6297302;28;20109;-90
2023/09/11 12:56:33;;;;;;;0.00;0.00;;;;;;;;;;6297910;28;20024;-90
2023/09/11 12:59:33;;;;;;;0.00;0.00;;;;;;;;;;6306227;28;20402;-90
2023/09/11 13:02:33;;;;;;;0.00;0.00;;;;;;;;;;6285343;28;20020;-90
2023/09/11 13:05:33;;;;;;;0.00;0.00;;;;;;;;;;6272388;28;20119;-90
2023/09/11 13:08:36;;;;;;;0.00;0.00;;;;;;;;;;6277881;28;20028;-90
2023/09/11 13:11:36;;;;;;;0.00;0.00;;;;;;;;;;6275175;28;20582;-89
2023/09/11 13:14:36;;;;;;;0.00;0.00;;;;;;;;;;6307934;28;20024;-90
2023/09/11 13:17:36;;;;;;;0.00;0.00;;;;;;;;;;6293100;28;20021;-84
2023/09/11 13:20:36;;;;;;;0.00;0.00;;;;;;;;;;6283188;28;20032;-84
2023/09/11 13:23:37;;;;;;;0.00;0.00;;;;;;;;;;6287426;28;20878;-84
2023/09/11 13:26:37;;;;;;;0.00;0.00;;;;;;;;;;6287291;28;20035;-84
2023/09/11 13:29:37;;;;;;;0.00;0.00;;;;;;;;;;6290256;28;20104;-84
2023/09/11 13:32:38;;;;;;;0.00;0.00;;;;;;;;;;6291179;28;20766;-84
2023/09/11 13:35:38;;;;;;;0.00;0.00;;;;;;;;;;6305715;28;20025;-84
2023/09/11 13:38:38;;;;;;;0.00;0.00;;;;;;;;;;6312044;28;20099;-85
2023/09/11 13:41:38;;;;;;;0.00;0.00;;;;;;;;;;6297456;28;20025;-84
2023/09/11 13:44:39;;;;;;;0.00;0.00;;;;;;;;;;6294873;28;20035;-84
2023/09/11 13:47:40;;;;;;;0.00;0.00;;;;;;;;;;6292977;28;20033;-84
2023/09/11 13:50:41;;;;;;;0.00;0.00;;;;;;;;;;6295949;28;20021;-83
2023/09/11 13:53:41;;;;;;;0.00;0.00;;;;;;;;;;6290530;28;20111;-84
2023/09/11 13:56:41;;;;;;;0.00;0.00;;;;;;;;;;6295305;28;20055;-86
2023/09/11 13:59:41;;;;;;;0.00;0.00;;;;;;;;;;6263570;28;20032;-84
2023/09/11 14:02:42;;;;;;;0.00;0.00;;;;;;;;;;6292529;28;20470;-84
2023/09/11 14:05:42;;;;;;;0.00;0.00;;;;;;;;;;6297650;28;20072;-85
2023/09/11 14:08:42;;;;;;;0.00;0.00;;;;;;;;;;6291750;28;20027;-85
2023/09/11 14:11:42;;;;;;;0.00;0.00;;;;;;;;;;6283947;28;20040;-85
2023/09/11 14:14:42;;;;;;;0.00;0.00;;;;;;;;;;6275132;28;20029;-84
2023/09/11 14:17:43;;;;;;;0.00;0.00;;;;;;;;;;6289431;28;20024;-84
2023/09/11 14:20:43;;;;;;;0.00;0.00;;;;;;;;;;6300092;28;20482;-84
2023/09/11 14:23:43;;;;;;;0.00;0.00;;;;;;;;;;6292737;28;20024;-84
2023/09/11 14:26:44;;;;;;;0.00;0.00;;;;;;;;;;6289870;28;20021;-84
2023/09/11 14:29:44;;;;;;;0.00;0.00;;;;;;;;;;6290440;28;20023;-86
2023/09/11 14:32:45;;;;;;;0.00;0.00;;;;;;;;;;6296669;28;20028;-85
2023/09/11 14:35:45;;;;;;;0.00;0.00;;;;;;;;;;6291091;28;20359;-84
2023/09/11 14:38:45;;;;;;;0.00;0.00;;;;;;;;;;6287268;28;20124;-84
2023/09/11 14:41:46;;;;;;;0.00;0.00;;;;;;;;;;6284250;28;20115;-84
2023/09/11 14:44:46;;;;;;;0.00;0.00;;;;;;;;;;6272483;28;20031;-84
2023/09/11 14:47:47;;;;;;;0.00;0.00;;;;;;;;;;6299456;28;20029;-84
2023/09/11 14:50:47;;;;;;;0.00;0.00;;;;;;;;;;6270267;28;20017;-85
2023/09/11 14:53:48;;;;;;;0.00;0.00;;;;;;;;;;6288386;28;20059;-85
2023/09/11 14:56:48;;;;;;;0.00;0.00;;;;;;;;;;6277316;28;20482;-85
2023/09/11 14:59:49;;;;;;;0.00;0.00;;;;;;;;;;6268542;28;20029;-85
2023/09/11 15:02:49;;;;;;;0.00;0.00;;;;;;;;;;6304203;28;20027;-85
2023/09/11 15:05:49;;;;;;;0.00;0.00;;;;;;;;;;6302237;28;20044;-85
2023/09/11 15:08:50;;;;;;;0.00;0.00;;;;;;;;;;6293046;28;20020;-85
2023/09/11 15:11:50;;;;;;;0.00;0.00;;;;;;;;;;6268963;28;20020;-85
2023/09/11 15:14:50;;;;;;;0.00;0.00;;;;;;;;;;6301890;28;20340;-85
2023/09/11 15:17:51;;;;;;;0.00;0.00;;;;;;;;;;6281384;28;20540;-85
2023/09/11 15:20:51;;;;;;;0.00;0.00;;;;;;;;;;6273728;28;20031;-85
2023/09/11 15:23:52;;;;;;;0.00;0.00;;;;;;;;;;6267174;28;20021;-85
2023/09/11 15:26:53;;;;;;;0.00;0.00;;;;;;;;;;6269731;28;20104;-85
2023/09/11 15:29:53;;;;;;;0.00;0.00;;;;;;;;;;6290508;28;20024;-85
2023/09/11 15:32:55;;;;;;;0.00;0.00;;;;;;;;;;6282667;28;20028;-86
2023/09/11 15:36:01;;;;;;;0.00;0.00;;;;;;;;;;6293006;28;20545;-91
2023/09/11 15:39:03;;;;;;;0.00;0.00;;;;;;;;;;6291913;28;20019;-90
2023/09/11 15:42:04;;;;;;;0.00;0.00;;;;;;;;;;6288340;28;20074;-89
2023/09/11 15:45:05;;;;;;;0.00;0.00;;;;;;;;;;6276910;28;20016;-90
2023/09/11 15:48:06;;;;;;;0.00;0.00;;;;;;;;;;6274715;28;20031;-90
2023/09/11 15:51:07;;;;;;;0.00;0.00;;;;;;;;;;6287136;28;20009;-90
2023/09/11 15:54:07;;;;;;;0.00;0.00;;;;;;;;;;6292253;28;20033;-90
2023/09/11 15:57:09;;;;;;;0.00;0.00;;;;;;;;;;6271670;28;20070;-85
2023/09/11 16:00:09;;;;;;;0.00;0.00;;;;;;;;;;6265290;28;20469;-85
2023/09/11 16:03:10;;;;;;;0.00;0.00;;;;;;;;;;6301895;28;20115;-85
2023/09/11 16:06:10;;;;;;;0.00;0.00;;;;;;;;;;6275599;28;20067;-85
2023/09/11 16:09:10;;;;;;;0.00;0.00;;;;;;;;;;6276836;28;20016;-85
2023/09/11 16:12:10;;;;;;;0.00;0.00;;;;;;;;;;6262667;28;20035;-85
2023/09/11 16:15:11;;;;;;;0.00;0.00;;;;;;;;;;6274771;28;20433;-85
2023/09/11 16:18:12;;;;;;;0.00;0.00;;;;;;;;;;6291921;28;20043;-85
2023/09/11 16:21:12;;;;;;;0.00;0.00;;;;;;;;;;6271959;28;20035;-84
2023/09/11 16:24:13;;;;;;;0.00;0.00;;;;;;;;;;6278829;28;20028;-83
2023/09/11 16:27:14;;;;;;;0.00;0.00;;;;;;;;;;6283936;28;20025;-84
2023/09/11 16:30:15;;;;;;;0.00;0.00;;;;;;;;;;6289238;28;20017;-84
2023/09/11 16:33:15;;;;;;;;;;;;;;;;;;6273087;28;20031;-85
2023/09/11 16:36:21;;;;;;;0.00;0.00;;;;;;;;;;6285173;28;19912;-84
2023/09/11 16:39:21;;;;;;;0.00;0.00;;;;;;;;;;6270610;28;20063;-84
2023/09/11 16:42:21;;;;;;;;;;;;;;;;;;6285002;28;20032;-84
2023/09/11 16:45:22;;;;;;;0.00;0.00;;;;;;;;;;6268946;28;19947;-85
2023/09/11 16:48:22;;;;;;;0.00;0.00;;;;;;;;;;6280007;28;20025;-84
2023/09/11 16:51:22;;;;;;;0.00;0.00;;;;;;;;;;6297673;28;20537;-84
2023/09/11 16:54:23;;;;;;;0.00;0.00;;;;;;;;;;6300195;28;20055;-85
2023/09/11 16:57:23;;;;;;;0.00;0.00;;;;;;;;;;6293129;28;20042;-84
2023/09/11 17:00:25;;;;;;;0.00;0.00;;;;;;;;;;6287207;28;20386;-84
2023/09/11 17:03:25;;;;;;;0.00;0.00;;;;;;;;;;6293814;28;20100;-84
2023/09/11 17:06:25;;;;;;;0.00;0.00;;;;;;;;;;6278403;28;20071;-89
2023/09/11 17:09:25;;;;;;;0.00;0.00;;;;;;;;;;6286289;28;20020;-89
2023/09/11 17:12:26;;;;;;;0.00;0.00;;;;;;;;;;6298762;28;20024;-89
2023/09/11 17:15:26;;;;;;;0.00;0.00;;;;;;;;;;6273385;28;20033;-89
2023/09/11 17:18:26;;;;;;;0.00;0.00;;;;;;;;;;6267139;28;20036;-89
2023/09/11 17:21:26;;;;;;;0.00;0.00;;;;;;;;;;6287917;28;20029;-89
2023/09/11 17:24:27;;;;;;;0.00;0.00;;;;;;;;;;6289832;28;20079;-89
2023/09/11 17:27:27;;;;;;;0.00;0.00;;;;;;;;;;6274620;28;20013;-89
2023/09/11 17:30:28;;;;;;;0.00;0.00;;;;;;;;;;6265019;28;20402;-89
2023/09/11 17:33:29;;;;;;;0.00;0.00;;;;;;;;;;6295708;28;20032;-89
2023/09/11 17:36:29;;;;;;;0.00;0.00;;;;;;;;;;6286062;28;20027;-88
2023/09/11 17:39:29;;;;;;;0.00;0.00;;;;;;;;;;6288805;28;20418;-89
2023/09/11 17:42:29;;;;;;;0.00;0.00;;;;;;;;;;6264521;28;20025;-90
2023/09/11 17:45:30;;;;;;;0.00;0.00;;;;;;;;;;6274988;28;20017;-89
2023/09/11 17:48:30;;;;;;;0.00;0.00;;;;;;;;;;6273034;28;20028;-89
2023/09/11 17:51:30;;;;;;;0.00;0.00;;;;;;;;;;6272093;28;20032;-89
2023/09/11 17:54:30;;;;;;;0.00;0.00;;;;;;;;;;6295884;28;20043;-89
2023/09/11 17:57:31;;;;;;;0.00;0.00;;;;;;;;;;6282067;28;20044;-84
2023/09/11 18:00:32;;;;;;;0.00;0.00;;;;;;;;;;6286944;28;20097;-84
2023/09/11 18:03:32;;;;;;;0.00;0.00;;;;;;;;;;6290316;28;20020;-84
2023/09/11 18:06:32;;;;;;;0.10;0.10;;;;;;;;;;6282092;28;20041;-84
2023/09/11 18:09:32;;;;;;;0.00;0.00;;;;;;;;;;6260910;28;20029;-84